• Join FlightAware (Why Join?)
  • Login
  • US Flag 
12:01PM EDT


 

Airport Tracker/Info


-or-


 

Live Flight TrackerFlight Track Log ✈ LXJ262 ✈ 26-Jul-2013 ✈ KDWH - KPBI

Flight Track Log - Related Links

Times and Time Zones

All times are in EDT time to prevent confusion due to time zone crossing. See the LXJ262 flight status page for this flight to view local times or setup timezone preferences in your user account.

Time Position Orientation Groundspeed Altitude Reporting Facility
EDT Latitude Longitude Course Direction KTS MPH feet Rate Location/Type
06:20PM 30.0500 -95.5525 213° Southwest 143 165 800  Level Houston Center
06:21PM 29.9889 -95.5983 213° Southwest 203 234 2,900 1,380 Climbing Houston Center
06:22PM 29.9564 -95.6142 203° Southwest 220 253 3,700 3,240 Climbing Houston Center
06:23PM 29.8875 -95.6381 197° South 251 289 8,300 3,780 Climbing Houston Center
06:24PM 29.8317 -95.5647 131° Southeast 303 349 11,600 3,240 Climbing Houston Center
06:25PM 29.8125 -95.4331 99° East 362 417 15,100 3,120 Climbing Houston Center
06:26PM 29.8200 -95.3078 86° East 387 445 18,100 2,940 Climbing Houston Center
06:27PM 29.8267 -95.1822 86° East 387 445 21,200 2,100 Climbing Houston Center
06:28PM 29.8322 -95.0492 87° East 406 467 22,500 1,860 Climbing Houston Center
06:29PM 29.8394 -94.9086 87° East 431 496 25,100 2,520 Climbing Houston Center
06:30PM 29.8617 -94.7769 79° East 420 483 27,800 2,220 Climbing Houston Center
06:31PM 29.8828 -94.6467 79° East 415 478 29,700 1,620 Climbing Houston Center
06:32PM 29.9028 -94.5106 80° East 428 493 31,200 1,380 Climbing Houston Center
06:33PM 29.9264 -94.3594 80° East 448 516 32,600 1,620 Climbing Houston Center
06:34PM 29.9492 -94.2161 80° East 455 524 34,600 2,160 Climbing Houston Center
06:35PM 29.9747 -94.0431 80° East 457 526 37,100 2,340 Climbing Houston Center
06:36PM 29.9958 -93.9053 80° East 444 511 39,500 1,740 Climbing Houston Center
06:37PM 30.0172 -93.7678 80° East 439 505 40,700 720 Climbing Houston Center
06:38PM 30.0378 -93.6308 80° East 439 505 41,000 120 Climbing Houston Center
06:39PM 30.0600 -93.4675 81° East 437 503 41,000  Level Houston Center
06:40PM 30.0819 -93.3325 79° East 437 503 41,000  Level Houston Center
06:41PM 30.1017 -93.1967 80° East 435 501 41,000  Level Houston Center
06:42PM 30.1219 -93.0611 80° East 433 498 41,000  Level Houston Center
06:44PM 30.1417 -92.9267 80° East 430 495 41,000  Level Houston Center
06:45PM 30.1658 -92.7633 80° East 432 497 41,000  Level Houston Center
06:46PM 30.1858 -92.6267 80° East 434 499 41,000  Level Houston Center
06:47PM 30.2050 -92.4878 81° East 438 504 41,000  Level Houston Center
06:48PM 30.2250 -92.3492 80° East 439 505 41,000  Level Houston Center
06:49PM 30.2358 -92.1969 85° East 443 510 41,000  Level Houston Center
06:50PM 30.2367 -92.0547 90° East 444 511 41,000  Level Houston Center
06:51PM 30.2383 -91.9142 89° East 442 509 41,000  Level Houston Center
06:52PM 30.2400 -91.7753 89° East 437 503 41,000  Level Houston Center
06:53PM 30.2417 -91.6328 89° East 435 501 41,000  Level Houston Center
06:54PM 30.2431 -91.4667 89° East 431 496 41,000  Level Houston Center
06:55PM 30.2689 -91.3319 77° East 431 496 41,000  Level Houston Center
06:56PM 30.2928 -91.1919 79° East 445 512 41,000  Level Houston Center
06:57PM 30.3150 -91.0506 80° East 447 514 41,000  Level Houston Center
06:58PM 30.3375 -90.9100 79° East 445 512 41,000  Level Houston Center
06:59PM 30.3603 -90.7708 79° East 441 507 41,000  Level Houston Center
07:00PM 30.3864 -90.6047 80° East 438 504 41,000  Level Houston Center
07:01PM 30.3939 -90.4650 86° East 438 504 41,000  Level Houston Center
07:02PM 30.4014 -90.3214 86° East 445 512 41,000  Level Houston Center
07:03PM 30.4078 -90.1767 87° East 448 516 41,000 -60 Level Houston Center
07:04PM 30.4147 -90.0314 87° East 452 520 40,900  Descending Houston Center
07:05PM 30.4219 -89.8850 87° East 453 521 41,000  Climbing Houston Center
07:06PM 30.4269 -89.7356 88° East 469 540 41,000  Level Houston Center
07:07PM 30.4356 -89.5756 86° East 473 544 41,000  Level Houston Center
07:08PM 30.4422 -89.4258 87° East 466 536 41,000  Level Houston Center
07:09PM 30.4483 -89.2486 88° East 461 531 41,000  Level Houston Center
07:10PM 30.4528 -89.1019 88° East 458 527 41,000  Level Houston Center
07:11PM 30.4592 -88.9572 87° East 451 519 41,000  Level Houston Center
07:12PM 30.4628 -88.8267 88° East 451 519 41,000  Level Houston Center
07:13PM 30.4689 -88.6539 88° East 452 520 41,000  Level Houston Center
07:14PM 30.4742 -88.5111 88° East 448 516 41,000  Level Houston Center
07:16PM 30.4797 -88.3678 87° East 448 516 41,000  Level Houston Center
07:17PM 30.4842 -88.2236 88° East 450 518 41,000  Level Houston Center
07:18PM 30.4894 -88.0794 88° East 451 519 41,000  Level Houston Center
07:19PM 30.4936 -87.9061 88° East 452 520 41,000  Level Houston Center
07:20PM 30.4456 -87.7686 112° Southeast 461 531 41,000  Level Houston Center
07:21PM 30.4014 -87.6328 111° Southeast 454 522 41,000  Level Houston Center
07:22PM 30.3544 -87.5019 113° Southeast 449 517 41,000  Level Jacksonville Center
07:23PM 30.3108 -87.3725 111° Southeast 438 504 41,000  Level Jacksonville Center
07:24PM 30.2653 -87.2428 112° Southeast 433 498 41,000  Level Jacksonville Center
07:25PM 30.2158 -87.1014 112° Southeast 433 498 41,000  Level Jacksonville Center
07:26PM 30.1722 -86.9697 111° Southeast 433 498 41,000  Level Jacksonville Center
07:27PM 30.1219 -86.8378 114° Southeast 439 505 41,000  Level Jacksonville Center
07:28PM 30.0781 -86.7064 111° Southeast 439 505 41,000  Level Jacksonville Center
07:29PM 30.0297 -86.5728 113° Southeast 439 505 41,000  Level Jacksonville Center
07:30PM 29.9811 -86.4414 113° Southeast 444 511 41,000  Level Jacksonville Center
07:31PM 29.9408 -86.3175 111° Southeast 444 511 41,000  Level Jacksonville Center
07:32PM 29.8919 -86.1889 114° Southeast 439 505 41,000  Level Jacksonville Center
07:33PM 29.8453 -86.0606 113° Southeast 439 505 41,000  Level Jacksonville Center
07:34PM 29.7961 -85.9272 113° Southeast 439 505 41,000  Level Jacksonville Center
07:35PM 29.7492 -85.7942 112° Southeast 439 505 41,000  Level Jacksonville Center
07:36PM 29.7019 -85.6636 113° Southeast 439 505 41,000  Level Jacksonville Center
07:37PM 29.6525 -85.5308 113° Southeast 439 505 41,000  Level Jacksonville Center
07:38PM 29.6053 -85.4006 113° Southeast 439 505 41,000  Level Jacksonville Center
07:39PM 29.5575 -85.2706 113° Southeast 439 505 41,000  Level Jacksonville Center
07:40PM 29.5097 -85.1428 113° Southeast 439 505 41,000  Level Jacksonville Center
07:41PM 29.4619 -85.0083 112° Southeast 444 511 41,000  Level Jacksonville Center
07:42PM 29.4117 -84.8808 114° Southeast 439 505 41,000  Level Jacksonville Center
07:43PM 29.3658 -84.7511 112° Southeast 439 505 41,000  Level Jacksonville Center
07:44PM 29.3175 -84.6239 114° Southeast 439 505 41,000  Level Jacksonville Center
07:45PM 29.2669 -84.4947 114° Southeast 439 505 41,000  Level Jacksonville Center
07:46PM 29.2078 -84.3772 120° Southeast 434 499 41,000  Level Jacksonville Center
07:47PM 29.1381 -84.2572 124° Southeast 439 505 41,000  Level Jacksonville Center
07:48PM 29.0725 -84.1350 122° Southeast 445 512 41,000  Level Jacksonville Center
07:49PM 29.0069 -84.0156 122° Southeast 445 512 41,000  Level Jacksonville Center
07:50PM 28.9392 -83.8961 123° Southeast 450 518 41,000  Level Jacksonville Center
07:51PM 28.8711 -83.7769 123° Southeast 450 518 41,000  Level Jacksonville Center
07:52PM 28.8031 -83.6556 123° Southeast 450 518 41,000  Level Jacksonville Center
07:53PM 28.7347 -83.5367 123° Southeast 450 518 41,000  Level Jacksonville Center
07:54PM 28.6686 -83.4178 122° Southeast 450 518 41,000  Level Jacksonville Center
07:55PM 28.6000 -83.2969 123° Southeast 450 518 41,000  Level Jacksonville Center
07:56PM 28.5314 -83.1786 123° Southeast 450 518 41,000  Level Jacksonville Center
07:57PM 28.4628 -83.0578 123° Southeast 450 518 41,000  Level Jacksonville Center
07:58PM 28.3900 -82.9303 123° Southeast 445 512 41,000  Level Jacksonville Center
07:59PM 28.2897 -82.7617 124° Southeast 450 518 41,000  Level Miami Center
08:00PM 28.2217 -82.6406 123° Southeast 456 525 41,000 -420 Level Miami Center
08:01PM 28.1494 -82.5192 124° Southeast 462 532 40,200 -1,920 Descending Miami Center
08:02PM 28.0811 -82.3981 123° Southeast 462 532 37,200 -2,640 Descending Miami Center
08:03PM 27.9872 -82.2925 135° Southeast 462 532 35,000 -1,140 Descending Miami Center
08:04PM 27.8614 -82.2511 164° South 451 519 35,000  Level Miami Center
08:05PM 27.7378 -82.2078 163° South 464 534 35,000 -1,200 Level Miami Center
08:06PM 27.5956 -82.1592 163° South 477 549 32,600 -2,220 Descending Miami Center
08:07PM 27.4700 -82.1158 163° South 482 555 30,600 -1,980 Descending Miami Center
08:08PM 27.3586 -82.0756 162° South 471 542 28,700 -1,980 Descending Miami Center
08:09PM 27.2350 -82.0350 164° South 471 542 26,700 -2,160 Descending Miami Center
08:10PM 27.0967 -81.9917 164° South 471 542 24,400 -1,380 Descending Miami Center
08:11PM 26.9708 -81.9486 163° South 471 542 24,000 -600 Descending Miami Center
08:12PM 26.8628 -81.8764 149° Southeast 450 518 23,300 -1,380 Descending Miami Center
08:13PM 26.7761 -81.7867 137° Southeast 437 503 21,300 -2,040 Descending Miami Center
08:14PM 26.6978 -81.6906 132° Southeast 420 483 19,300 -1,200 Descending Miami Center
08:15PM 26.7064 -81.5606 86° East 381 438 19,000 -660 Descending Miami Center
08:17PM 26.7689 -81.3003 75° East 427 491 17,400 -1,380 Descending Miami Center
08:18PM 26.7953 -81.1875 75° East 432 497 14,900 -2,580 Descending Miami Center
08:19PM 26.8178 -81.0533 79° East 415 478 12,300 -1,920 Descending Miami Center
08:20PM 26.8061 -80.9506 97° East 338 389 11,100 -1,080 Descending Miami Center
08:21PM 26.7878 -80.8614 103° East 312 359 10,200 -540 Descending Miami Center
08:22PM 26.7650 -80.7792 107° East 296 341 10,100 -1,080 Descending Miami Center
08:23PM 26.7339 -80.6922 112° Southeast 290 334 8,100 -2,100 Descending Miami Center
08:24PM 26.7131 -80.6056 105° East 285 328 6,000 -1,500 Descending Miami Center
08:25PM 26.7111 -80.5194 91° East 278 320 5,100 -480 Descending Miami Center
08:26PM 26.7006 -80.4400 98° East 272 313 5,100 -300 Level Miami Center
08:27PM 26.6903 -80.3561 98° East 267 307 4,600 -1,140 Descending Miami Center
08:28PM 26.6881 -80.2722 92° East 267 307 2,900 -1,380 Descending Miami Center
08:29PM 26.6872 -80.2094 91° East 257 296 1,900 -1,020 Descending Miami Center
08:31PM 26.6423 -80.1158 50° Northeast  Level FlightAware Approximate
08:38PM 26.6667 -80.0833 50° Northeast  Level FlightAware Approximate
08:39PM 26.6832 -80.0956 50° Northeast  Level Estimated
08:40PM 26.6832 -80.0956 50° Northeast  Level Estimated